createdAt,value
2022-08-26T00:00:56.773Z,39.79
2022-08-26T00:02:59.012Z,39.81
2022-08-26T00:05:00.714Z,39.29
2022-08-26T00:07:02.336Z,40.46
2022-08-26T00:09:04.966Z,40.23
2022-08-26T00:11:10.341Z,39.85
2022-08-26T00:13:13.036Z,39.64
2022-08-26T00:15:19.029Z,39.57
2022-08-26T00:17:21.666Z,39.55
2022-08-26T00:19:23.715Z,39.61
2022-08-26T00:21:25.657Z,39.75
2022-08-26T00:23:28.930Z,39.42
2022-08-26T00:25:30.903Z,39.79
2022-08-26T00:27:35.639Z,39.37
2022-08-26T00:29:37.699Z,39.75
2022-08-26T00:31:40.267Z,39.45
2022-08-26T00:33:42.967Z,39.38
2022-08-26T00:35:47.758Z,39.68
2022-08-26T00:37:49.594Z,39.75
2022-08-26T00:39:51.241Z,39.34
2022-08-26T00:41:54.718Z,39.90
2022-08-26T00:43:56.331Z,39.70
2022-08-26T00:46:13.519Z,40.47
2022-08-26T00:48:18.841Z,40.57
2022-08-26T00:50:26.691Z,40.35
2022-08-26T00:52:28.695Z,41.22
2022-08-26T00:54:36.623Z,41.21
2022-08-26T00:56:43.464Z,41.36
2022-08-26T00:58:47.944Z,40.85
2022-08-26T01:00:49.629Z,40.40
2022-08-26T01:02:51.777Z,41.16
2022-08-26T01:04:56.547Z,40.77
2022-08-26T01:06:58.186Z,41.49
2022-08-26T01:09:00.117Z,40.13
2022-08-26T01:11:02.578Z,41.62
2022-08-26T01:13:12.618Z,41.05
2022-08-26T01:15:19.715Z,41.39
2022-08-26T01:17:21.414Z,40.63
2022-08-26T01:19:31.237Z,40.15
2022-08-26T01:21:42.372Z,40.54
2022-08-26T01:23:50.941Z,41.32
2022-08-26T01:25:59.435Z,39.47
2022-08-26T01:28:05.787Z,40.63
2022-08-26T01:30:07.961Z,41.27
2022-08-26T01:32:14.729Z,42.02
2022-08-26T01:34:20.729Z,42.12
2022-08-26T01:36:22.747Z,42.24
2022-08-26T01:38:24.529Z,42.42
2022-08-26T01:40:32.105Z,42.13
2022-08-26T01:42:34.389Z,42.43
2022-08-26T01:44:41.660Z,42.73
2022-08-26T01:46:45.774Z,42.83
2022-08-26T01:48:49.095Z,42.30
2022-08-26T01:50:56.459Z,41.73
2022-08-26T01:53:02.067Z,42.46
2022-08-26T01:55:05.407Z,42.79
2022-08-26T01:57:08.819Z,41.91
2022-08-26T01:59:14.879Z,41.84
2022-08-26T02:01:19.088Z,42.16
2022-08-26T02:03:24.402Z,41.36
2022-08-26T02:05:26.059Z,42.36
2022-08-26T02:07:28.635Z,42.07
2022-08-26T02:09:30.823Z,42.65
2022-08-26T02:11:33.990Z,40.83
2022-08-26T02:13:41.677Z,40.51
2022-08-26T02:15:44.665Z,40.25
2022-08-26T02:17:47.399Z,40.92
2022-08-26T02:19:50.584Z,42.56
2022-08-26T02:21:53.114Z,42.59
2022-08-26T02:23:56.227Z,40.99
2022-08-26T02:26:06.086Z,40.31
2022-08-26T02:28:10.468Z,40.30
2022-08-26T02:30:14.851Z,40.65
2022-08-26T02:32:18.873Z,40.62
2022-08-26T02:34:23.867Z,41.06
2022-08-26T02:36:29.716Z,41.17
2022-08-26T02:38:31.298Z,40.77
2022-08-26T02:40:39.343Z,41.25
2022-08-26T02:42:41.729Z,41.14
2022-08-26T02:44:44.107Z,41.09
2022-08-26T02:46:47.070Z,42.46
2022-08-26T02:48:48.958Z,42.32
2022-08-26T02:50:50.583Z,42.35
2022-08-26T02:52:52.773Z,41.09
2022-08-26T02:54:54.368Z,40.89
2022-08-26T02:56:56.841Z,41.43
2022-08-26T02:58:59.081Z,41.58
2022-08-26T03:01:01.571Z,41.36
2022-08-26T03:03:06.678Z,41.97
2022-08-26T03:05:08.963Z,41.48
2022-08-26T03:07:10.551Z,41.87
2022-08-26T03:09:15.978Z,41.38
2022-08-26T03:11:20.566Z,41.39
2022-08-26T03:13:23.382Z,41.80
2022-08-26T03:15:25.055Z,41.73
2022-08-26T03:17:27.078Z,44.29
2022-08-26T03:19:29.042Z,43.68
2022-08-26T03:21:33.673Z,42.27
2022-08-26T03:23:38.891Z,41.93
2022-08-26T03:25:40.844Z,43.07
2022-08-26T03:27:43.225Z,43.64
2022-08-26T03:30:03.498Z,43.39
2022-08-26T03:32:06.340Z,43.39
2022-08-26T03:34:08.085Z,44.14
2022-08-26T03:36:09.702Z,44.17
2022-08-26T03:38:12.920Z,45.29
2022-08-26T03:40:14.651Z,45.02
2022-08-26T03:42:16.301Z,44.77
2022-08-26T03:44:18.160Z,44.60
2022-08-26T03:46:20.666Z,44.49
2022-08-26T03:48:22.783Z,45.09
2022-08-26T03:50:24.680Z,44.65
2022-08-26T03:52:30.283Z,44.42
2022-08-26T03:54:31.895Z,43.44
2022-08-26T03:56:33.619Z,42.82
2022-08-26T03:58:35.478Z,43.69
2022-08-26T04:00:37.079Z,44.13
2022-08-26T04:02:38.721Z,45.00
2022-08-26T04:04:40.340Z,45.54
2022-08-26T04:06:45.939Z,44.56
2022-08-26T04:08:47.514Z,43.49
2022-08-26T04:10:49.620Z,43.65
2022-08-26T04:12:53.393Z,44.88
2022-08-26T04:14:54.989Z,44.46
2022-08-26T04:16:58.765Z,45.43
2022-08-26T04:19:00.388Z,45.26
2022-08-26T04:21:02.691Z,44.76
2022-08-26T04:23:09.603Z,42.47
2022-08-26T04:25:12.399Z,43.85
2022-08-26T04:27:14.034Z,45.20
2022-08-26T04:29:19.161Z,45.13
2022-08-26T04:31:20.969Z,44.46
2022-08-26T04:33:32.197Z,45.76
2022-08-26T04:35:35.268Z,45.20
2022-08-26T04:37:37.547Z,43.78
2022-08-26T04:39:39.223Z,42.49
2022-08-26T04:41:40.840Z,43.43
2022-08-26T04:43:42.884Z,43.14
2022-08-26T04:45:44.556Z,43.43
2022-08-26T04:47:47.106Z,43.43
2022-08-26T04:49:48.699Z,44.14
2022-08-26T04:51:50.377Z,42.98
2022-08-26T04:53:52.639Z,42.70
2022-08-26T04:55:55.246Z,42.24
2022-08-26T04:57:57.543Z,42.66
2022-08-26T04:59:59.489Z,43.71
2022-08-26T05:02:01.809Z,44.68
2022-08-26T05:04:05.017Z,44.76
2022-08-26T05:06:09.808Z,45.17
2022-08-26T05:08:13.204Z,44.21
2022-08-26T05:10:14.877Z,44.54
2022-08-26T05:12:16.506Z,44.97
2022-08-26T05:14:18.406Z,45.83
2022-08-26T05:16:20.140Z,43.31
2022-08-26T05:18:24.019Z,43.67
2022-08-26T05:20:26.273Z,44.03
2022-08-26T05:22:27.906Z,45.52
2022-08-26T05:24:30.253Z,44.72
2022-08-26T05:26:32.475Z,45.19
2022-08-26T05:28:34.170Z,44.35
2022-08-26T05:30:38.169Z,44.01
2022-08-26T05:32:40.177Z,44.55
2022-08-26T05:34:42.878Z,44.52
2022-08-26T05:36:44.743Z,44.12
2022-08-26T05:38:47.002Z,45.67
2022-08-26T05:40:52.524Z,45.76
2022-08-26T05:42:55.158Z,44.56
2022-08-26T05:44:56.792Z,44.75
2022-08-26T05:46:58.495Z,44.46
2022-08-26T05:49:00.072Z,44.08
2022-08-26T05:51:05.439Z,44.34
2022-08-26T05:53:09.524Z,45.19
2022-08-26T05:55:11.262Z,43.85
2022-08-26T05:57:13.879Z,44.52
2022-08-26T05:59:16.169Z,44.13
2022-08-26T06:01:28.542Z,44.61
2022-08-26T06:03:33.928Z,45.67
2022-08-26T06:05:40.127Z,46.76
2022-08-26T06:08:00.251Z,46.34
2022-08-26T06:10:30.531Z,45.23
2022-08-26T06:12:23.912Z,44.06
2022-08-26T06:14:26.101Z,44.03
2022-08-26T06:16:28.595Z,43.88
2022-08-26T06:18:36.338Z,43.54
2022-08-26T06:20:43.608Z,43.92
2022-08-26T06:23:16.774Z,44.60
2022-08-26T06:25:36.923Z,44.84
2022-08-26T06:27:39.039Z,43.97
2022-08-26T06:29:41.781Z,43.14
2022-08-26T06:31:43.629Z,43.61
2022-08-26T06:33:45.483Z,44.56
2022-08-26T06:35:48.241Z,44.60
2022-08-26T06:37:50.059Z,45.70
2022-08-26T06:39:51.680Z,45.54
2022-08-26T06:41:53.444Z,45.98
2022-08-26T06:43:56.855Z,46.58
2022-08-26T06:46:09.338Z,45.38
2022-08-26T06:48:12.054Z,45.00
2022-08-26T06:50:13.734Z,45.12
2022-08-26T06:52:16.520Z,43.83
2022-08-26T06:54:21.735Z,45.13
2022-08-26T06:56:26.036Z,47.60
2022-08-26T06:58:27.673Z,46.28
2022-08-26T07:00:29.352Z,49.31
2022-08-26T07:02:30.971Z,47.14
2022-08-26T07:04:33.869Z,44.83
2022-08-26T07:06:40.474Z,44.53
2022-08-26T07:08:42.134Z,44.23
2022-08-26T07:10:44.038Z,43.52
2022-08-26T07:12:47.263Z,42.97
2022-08-26T07:14:49.018Z,43.79
2022-08-26T07:16:51.187Z,43.68
2022-08-26T07:18:53.979Z,46.87
2022-08-26T07:20:55.600Z,43.77
2022-08-26T07:22:58.968Z,42.62
2022-08-26T07:25:00.524Z,44.79
2022-08-26T07:27:05.562Z,47.01
2022-08-26T07:29:07.269Z,43.80
2022-08-26T07:31:10.918Z,41.96
2022-08-26T07:33:13.784Z,42.98
2022-08-26T07:35:15.811Z,43.02
2022-08-26T07:37:17.940Z,42.95
2022-08-26T07:39:20.742Z,43.04
2022-08-26T07:41:24.832Z,44.47
2022-08-26T07:43:26.467Z,42.83
2022-08-26T07:45:30.923Z,43.74
2022-08-26T07:47:32.998Z,42.93
2022-08-26T07:49:35.422Z,42.87
2022-08-26T07:51:37.698Z,43.54
2022-08-26T07:53:39.926Z,43.88
2022-08-26T07:55:41.871Z,46.91
2022-08-26T07:57:43.792Z,44.14
2022-08-26T07:59:45.362Z,44.98
2022-08-26T08:01:47.859Z,44.70
2022-08-26T08:03:51.749Z,43.65
2022-08-26T08:05:53.605Z,42.59
2022-08-26T08:08:17.326Z,42.75
2022-08-26T08:10:21.707Z,41.62
2022-08-26T08:12:26.723Z,42.35
2022-08-26T08:14:28.442Z,42.64
2022-08-26T08:16:32.283Z,43.36
2022-08-26T08:18:35.166Z,42.62
2022-08-26T08:20:36.806Z,42.53
2022-08-26T08:22:38.485Z,41.95
2022-08-26T08:24:40.044Z,42.96
2022-08-26T08:26:41.827Z,41.80
2022-08-26T08:28:43.418Z,42.03
2022-08-26T08:30:45.685Z,43.29
2022-08-26T08:32:47.848Z,42.41
2022-08-26T08:34:49.812Z,41.51
2022-08-26T08:36:53.523Z,41.37
2022-08-26T08:38:55.872Z,43.76
2022-08-26T08:40:57.464Z,43.26
2022-08-26T08:43:04.201Z,41.85
2022-08-26T08:45:12.884Z,42.09
2022-08-26T08:47:32.319Z,42.40
2022-08-26T08:49:34.592Z,43.15
2022-08-26T08:51:54.315Z,41.96
2022-08-26T08:53:59.683Z,42.38
2022-08-26T08:56:36.823Z,42.13
2022-08-26T08:58:51.517Z,42.15
2022-08-26T09:01:02.439Z,41.88
2022-08-26T09:03:18.328Z,42.12
2022-08-26T09:05:20.171Z,41.49
2022-08-26T09:07:27.917Z,42.32
2022-08-26T09:09:37.673Z,42.96
2022-08-26T09:11:39.278Z,43.57
2022-08-26T09:13:46.775Z,42.94
2022-08-26T09:16:10.083Z,43.09
2022-08-26T09:18:35.094Z,41.42
2022-08-26T09:20:54.866Z,41.63
2022-08-26T09:22:57.458Z,41.18
2022-08-26T09:24:59.610Z,42.24
2022-08-26T09:27:01.283Z,41.98
2022-08-26T09:29:08.787Z,42.13
2022-08-26T09:31:25.175Z,41.95
2022-08-26T09:33:31.796Z,42.47
2022-08-26T09:35:39.892Z,41.46
2022-08-26T09:39:52.502Z,41.88
2022-08-26T09:42:14.253Z,41.73
2022-08-26T09:44:19.032Z,41.01
2022-08-26T09:46:28.108Z,41.44
2022-08-26T09:48:29.808Z,40.02
2022-08-26T09:50:53.773Z,39.46
2022-08-26T09:53:25.127Z,39.45
2022-08-26T09:55:30.520Z,39.77
2022-08-26T09:57:44.000Z,39.44
2022-08-26T09:59:47.037Z,40.24
2022-08-26T10:01:48.841Z,39.98
2022-08-26T10:03:52.030Z,40.99
2022-08-26T10:06:01.253Z,39.49
2022-08-26T10:08:40.126Z,38.93
2022-08-26T10:10:45.127Z,39.73
2022-08-26T10:12:56.552Z,39.77
2022-08-26T10:15:03.662Z,39.17
2022-08-26T10:17:43.309Z,38.72
2022-08-26T10:19:57.810Z,39.56
2022-08-26T10:22:32.403Z,39.21
2022-08-26T10:24:43.699Z,38.08
2022-08-26T10:27:15.104Z,38.47
2022-08-26T10:29:23.048Z,38.18
2022-08-26T10:31:38.131Z,37.95
2022-08-26T10:33:42.088Z,37.80
2022-08-26T10:36:03.302Z,37.48
2022-08-26T10:38:11.942Z,38.41
2022-08-26T10:40:23.633Z,36.23
2022-08-26T10:42:42.733Z,36.84
2022-08-26T10:44:47.420Z,36.52
2022-08-26T10:46:56.896Z,36.19
2022-08-26T10:49:14.031Z,36.73
2022-08-26T10:51:24.502Z,36.44
2022-08-26T10:53:52.947Z,36.24
2022-08-26T10:55:59.412Z,36.93
2022-08-26T10:58:42.672Z,36.46
2022-08-26T11:03:24.630Z,37.52
2022-08-26T11:05:26.423Z,36.60
2022-08-26T11:07:46.128Z,36.55
2022-08-26T11:09:49.040Z,36.98
2022-08-26T11:11:51.495Z,38.25
2022-08-26T11:14:05.812Z,37.57
2022-08-26T11:16:08.353Z,36.72
2022-08-26T11:18:13.349Z,35.65
2022-08-26T11:20:34.882Z,35.56
2022-08-26T11:22:47.559Z,35.80
2022-08-26T11:24:52.750Z,35.90
2022-08-26T11:26:56.418Z,35.68
2022-08-26T11:28:58.401Z,35.32
2022-08-26T11:31:00.104Z,35.19
2022-08-26T11:33:01.710Z,34.42
2022-08-26T11:35:06.586Z,37.17
2022-08-26T11:37:17.061Z,35.48
2022-08-26T11:39:25.951Z,35.13
2022-08-26T11:41:30.016Z,35.09
2022-08-26T11:43:33.186Z,35.45
2022-08-26T11:45:47.055Z,34.50
2022-08-26T11:47:49.424Z,34.92
2022-08-26T11:50:06.878Z,35.22
2022-08-26T11:52:26.529Z,35.11
2022-08-26T11:54:35.411Z,35.71
2022-08-26T11:56:39.675Z,36.33
2022-08-26T11:58:44.315Z,35.20
2022-08-26T12:00:54.514Z,35.41
2022-08-26T12:03:00.471Z,35.56
2022-08-26T12:05:02.400Z,36.04
2022-08-26T12:07:04.971Z,36.17
2022-08-26T12:09:13.934Z,34.84
2022-08-26T12:11:26.544Z,35.28
2022-08-26T12:13:28.136Z,33.75
2022-08-26T12:15:31.906Z,34.92
2022-08-26T12:17:33.534Z,34.03
2022-08-26T12:19:35.163Z,34.03
2022-08-26T12:21:37.374Z,36.14
2022-08-26T12:23:48.037Z,34.89
2022-08-26T12:25:54.482Z,34.34
2022-08-26T12:28:04.002Z,33.46
2022-08-26T12:30:12.248Z,33.79
2022-08-26T12:32:18.393Z,34.31
2022-08-26T12:34:20.210Z,33.59
2022-08-26T12:36:28.521Z,33.99
2022-08-26T12:38:31.117Z,34.25
2022-08-26T12:40:41.463Z,34.30
2022-08-26T12:42:43.183Z,35.27
2022-08-26T12:44:54.134Z,38.89
2022-08-26T12:47:05.995Z,39.36
2022-08-26T12:49:07.850Z,40.46
2022-08-26T12:51:20.025Z,41.19
2022-08-26T12:53:31.943Z,42.82
2022-08-26T12:55:36.570Z,43.41
2022-08-26T12:57:38.885Z,47.92
2022-08-26T12:59:40.869Z,47.24
2022-08-26T13:01:44.822Z,46.74
2022-08-26T13:03:46.898Z,46.40
2022-08-26T13:05:48.563Z,46.62
2022-08-26T13:08:15.298Z,46.83
2022-08-26T13:10:35.523Z,47.64
2022-08-26T13:12:37.464Z,47.44
2022-08-26T13:14:40.574Z,47.26
2022-08-26T13:16:42.620Z,46.54
2022-08-26T13:18:44.271Z,45.30
2022-08-26T13:20:46.119Z,45.92
2022-08-26T13:22:58.522Z,45.42
2022-08-26T13:25:00.879Z,44.40
2022-08-26T13:27:03.779Z,43.31
2022-08-26T13:29:10.025Z,42.75
2022-08-26T13:31:13.737Z,42.75
2022-08-26T13:33:16.816Z,43.11
2022-08-26T13:35:19.957Z,43.79
2022-08-26T13:37:34.586Z,42.87
2022-08-26T13:39:38.196Z,43.47
2022-08-26T13:41:39.869Z,44.06
2022-08-26T13:43:41.508Z,45.21
2022-08-26T13:45:43.407Z,46.12
2022-08-26T13:47:45.031Z,46.36
2022-08-26T13:49:47.007Z,45.90
2022-08-26T13:51:48.798Z,45.13
2022-08-26T13:53:51.187Z,44.89
2022-08-26T13:55:53.271Z,45.12
2022-08-26T13:57:56.352Z,45.08
2022-08-26T13:59:59.463Z,45.72
2022-08-26T14:02:02.929Z,46.53
2022-08-26T14:04:04.669Z,46.15
2022-08-26T14:06:06.265Z,45.56
2022-08-26T14:08:08.548Z,45.46
2022-08-26T14:10:11.052Z,44.85
2022-08-26T14:12:12.697Z,45.25
2022-08-26T14:14:14.315Z,44.97
2022-08-26T14:16:29.080Z,44.72
2022-08-26T14:18:43.647Z,44.86
2022-08-26T14:20:49.933Z,44.56
2022-08-26T14:23:12.558Z,44.41
2022-08-26T14:25:14.519Z,44.32
2022-08-26T14:27:16.392Z,43.49
2022-08-26T14:29:18.035Z,44.33
2022-08-26T14:31:19.780Z,44.23
2022-08-26T14:33:28.075Z,44.64
2022-08-26T14:35:31.344Z,44.60
2022-08-26T14:37:33.014Z,44.22
2022-08-26T14:39:35.233Z,44.53
2022-08-26T14:41:43.950Z,44.50
2022-08-26T14:43:54.608Z,45.23
2022-08-26T14:45:56.311Z,43.78
2022-08-26T14:47:58.850Z,44.05
2022-08-26T14:50:00.441Z,44.97
2022-08-26T14:52:02.775Z,44.69
2022-08-26T14:54:13.331Z,44.38
2022-08-26T14:56:16.786Z,44.00
2022-08-26T14:58:18.515Z,45.01
2022-08-26T15:00:20.391Z,44.18
2022-08-26T15:02:33.248Z,44.10
2022-08-26T15:04:35.509Z,42.88
2022-08-26T15:06:38.272Z,42.97
2022-08-26T15:08:40.156Z,43.50
2022-08-26T15:10:41.758Z,42.76
2022-08-26T15:12:44.307Z,43.24
2022-08-26T15:14:45.966Z,43.37
2022-08-26T15:16:54.227Z,43.47
2022-08-26T15:18:56.146Z,43.55
2022-08-26T15:20:57.749Z,44.56
2022-08-26T15:23:03.299Z,44.45
2022-08-26T15:25:08.675Z,43.79
2022-08-26T15:27:10.348Z,43.58
2022-08-26T15:29:12.970Z,45.25
2022-08-26T15:31:15.696Z,44.50
2022-08-26T15:33:17.455Z,43.60
2022-08-26T15:35:19.268Z,43.51
2022-08-26T15:37:21.004Z,44.04
2022-08-26T15:39:22.682Z,44.44
2022-08-26T15:41:24.556Z,43.58
2022-08-26T15:43:29.148Z,43.10
2022-08-26T15:45:33.073Z,43.28
2022-08-26T15:47:35.516Z,43.63
2022-08-26T15:49:56.515Z,44.54
2022-08-26T15:51:58.101Z,43.84
2022-08-26T15:54:02.823Z,43.30
2022-08-26T15:56:06.890Z,44.35
2022-08-26T15:58:10.497Z,44.34
2022-08-26T16:00:12.683Z,43.41
2022-08-26T16:02:14.716Z,43.95
2022-08-26T16:04:17.636Z,44.26
2022-08-26T16:06:22.644Z,44.40
2022-08-26T16:08:24.542Z,43.33
2022-08-26T16:10:26.149Z,44.25
2022-08-26T16:12:27.776Z,43.36
2022-08-26T16:14:30.122Z,43.89
2022-08-26T16:16:32.350Z,44.36
2022-08-26T16:18:34.210Z,43.68
2022-08-26T16:20:38.217Z,43.03
2022-08-26T16:22:40.152Z,44.08
2022-08-26T16:24:41.747Z,44.54
2022-08-26T16:26:45.346Z,43.84
2022-08-26T16:28:47.444Z,42.91
2022-08-26T16:30:49.514Z,43.56
2022-08-26T16:32:53.021Z,42.96
2022-08-26T16:34:56.347Z,43.17
2022-08-26T16:36:58.683Z,42.40
2022-08-26T16:39:00.613Z,42.03
2022-08-26T16:41:02.467Z,41.47
2022-08-26T16:43:04.879Z,41.95
2022-08-26T16:45:07.366Z,41.66
2022-08-26T16:47:08.984Z,41.06
2022-08-26T16:49:10.599Z,41.68
2022-08-26T16:51:18.098Z,41.07
2022-08-26T16:53:19.819Z,41.25
2022-08-26T16:55:22.668Z,41.45
2022-08-26T16:57:24.368Z,42.27
2022-08-26T16:59:26.450Z,42.76
2022-08-26T17:01:28.722Z,43.05
2022-08-26T17:03:30.469Z,42.15
2022-08-26T17:05:32.127Z,42.79
2022-08-26T17:07:35.614Z,42.84
2022-08-26T17:09:37.603Z,43.19
2022-08-26T17:11:43.589Z,43.57
2022-08-26T17:13:45.268Z,43.37
2022-08-26T17:15:54.197Z,42.46
2022-08-26T17:18:00.044Z,43.28
2022-08-26T17:20:08.850Z,43.44
2022-08-26T17:22:11.343Z,43.08
2022-08-26T17:24:14.231Z,44.13
2022-08-26T17:26:15.936Z,42.35
2022-08-26T17:28:17.619Z,43.36
2022-08-26T17:30:19.978Z,42.93
2022-08-26T17:32:21.676Z,42.77
2022-08-26T17:34:23.573Z,41.74
2022-08-26T17:36:28.121Z,42.16
2022-08-26T17:38:30.459Z,42.55
2022-08-26T17:40:32.146Z,42.32
2022-08-26T17:42:33.943Z,41.99
2022-08-26T17:44:35.604Z,42.43
2022-08-26T17:46:38.533Z,43.49
2022-08-26T17:48:41.308Z,43.82
2022-08-26T17:50:43.473Z,43.21
2022-08-26T17:52:51.037Z,43.32
2022-08-26T17:54:53.572Z,43.70
2022-08-26T17:56:55.197Z,43.45
2022-08-26T17:59:03.585Z,44.83
2022-08-26T18:01:06.559Z,44.73
2022-08-26T18:03:08.407Z,43.74
2022-08-26T18:05:12.676Z,45.65
2022-08-26T18:07:14.811Z,44.02
2022-08-26T18:09:16.484Z,44.26
2022-08-26T18:11:20.373Z,44.19
2022-08-26T18:13:21.962Z,43.26
2022-08-26T18:15:24.070Z,44.50
2022-08-26T18:17:25.732Z,44.55
2022-08-26T18:19:27.725Z,43.75
2022-08-26T18:21:29.425Z,44.37
2022-08-26T18:23:31.071Z,43.60
2022-08-26T18:25:33.425Z,44.14
2022-08-26T18:27:36.165Z,44.61
2022-08-26T18:29:37.766Z,45.17
2022-08-26T18:31:48.581Z,45.24
2022-08-26T18:33:50.654Z,45.50
2022-08-26T18:35:52.811Z,44.45
2022-08-26T18:37:55.769Z,44.57
2022-08-26T18:39:58.183Z,44.27
2022-08-26T18:41:59.871Z,45.47
2022-08-26T18:44:01.484Z,45.18
2022-08-26T18:46:08.146Z,45.92
2022-08-26T18:48:09.887Z,46.43
2022-08-26T18:50:11.700Z,45.70
2022-08-26T18:52:13.339Z,45.48
2022-08-26T18:54:15.051Z,44.94
2022-08-26T18:56:18.645Z,45.57
2022-08-26T18:58:20.488Z,48.16
2022-08-26T19:00:22.276Z,50.36
2022-08-26T19:02:24.545Z,48.78
2022-08-26T19:04:26.417Z,48.74
2022-08-26T19:06:31.665Z,48.70
2022-08-26T19:08:33.285Z,46.67
2022-08-26T19:10:39.476Z,46.31
2022-08-26T19:12:41.354Z,46.52
2022-08-26T19:14:43.653Z,47.37
2022-08-26T19:16:47.731Z,47.81
2022-08-26T19:18:50.319Z,47.04
2022-08-26T19:20:51.956Z,46.98
2022-08-26T19:22:53.639Z,45.09
2022-08-26T19:24:55.216Z,45.28
2022-08-26T19:27:00.794Z,45.10
2022-08-26T19:29:02.607Z,45.02
2022-08-26T19:31:04.197Z,45.50
2022-08-26T19:33:07.340Z,45.49
2022-08-26T19:35:09.334Z,45.68
2022-08-26T19:37:11.084Z,45.36
2022-08-26T19:39:12.949Z,45.34
2022-08-26T19:41:16.943Z,45.73
2022-08-26T19:43:18.604Z,47.02
2022-08-26T19:45:25.323Z,46.69
2022-08-26T19:47:27.354Z,47.06
2022-08-26T19:49:29.107Z,47.04
2022-08-26T19:51:35.164Z,47.75
2022-08-26T19:53:36.751Z,46.90
2022-08-26T19:55:38.861Z,47.19
2022-08-26T19:57:40.508Z,47.37
2022-08-26T19:59:42.939Z,48.19
2022-08-26T20:01:44.950Z,47.76
2022-08-26T20:03:46.947Z,47.95
2022-08-26T20:05:49.342Z,47.13
2022-08-26T20:07:51.168Z,46.80
2022-08-26T20:09:52.766Z,45.99
2022-08-26T20:11:56.749Z,46.64
2022-08-26T20:13:59.734Z,46.12
2022-08-26T20:16:01.412Z,46.56
2022-08-26T20:18:03.221Z,45.97
2022-08-26T20:20:33.303Z,46.98
2022-08-26T20:22:38.967Z,46.25
2022-08-26T20:24:40.729Z,46.37
2022-08-26T20:26:43.940Z,46.67
2022-08-26T20:28:45.573Z,46.53
2022-08-26T20:30:49.447Z,47.39
2022-08-26T20:32:51.175Z,47.32
2022-08-26T20:34:53.469Z,46.83
2022-08-26T20:36:55.161Z,47.60
2022-08-26T20:38:57.730Z,46.90
2022-08-26T20:40:59.427Z,47.15
2022-08-26T20:43:01.105Z,47.55
2022-08-26T20:45:03.340Z,46.25
2022-08-26T20:47:05.636Z,47.12
2022-08-26T20:49:08.184Z,46.09
2022-08-26T20:51:09.831Z,47.32
2022-08-26T20:53:11.528Z,46.33
2022-08-26T20:55:13.421Z,46.19
2022-08-26T20:57:15.078Z,47.33
2022-08-26T20:59:17.271Z,46.05
2022-08-26T21:01:24.919Z,46.03
2022-08-26T21:03:27.845Z,45.86
2022-08-26T21:05:29.491Z,45.95
2022-08-26T21:07:31.176Z,46.15
2022-08-26T21:09:32.847Z,46.21
2022-08-26T21:11:35.773Z,45.99
2022-08-26T21:13:54.497Z,47.27
2022-08-26T21:15:59.238Z,47.05
2022-08-26T21:18:00.963Z,46.58
2022-08-26T21:20:03.256Z,46.70
2022-08-26T21:22:05.524Z,46.10
2022-08-26T21:24:07.370Z,46.33
2022-08-26T21:26:11.930Z,46.29
2022-08-26T21:28:13.582Z,48.29
2022-08-26T21:30:16.026Z,47.49
2022-08-26T21:32:17.692Z,47.48
2022-08-26T21:34:19.953Z,48.37
2022-08-26T21:36:21.655Z,46.98
2022-08-26T21:38:23.376Z,47.99
2022-08-26T21:40:25.338Z,46.88
2022-08-26T21:42:27.583Z,47.06
2022-08-26T21:44:29.205Z,46.42
2022-08-26T21:46:31.199Z,46.54
2022-08-26T21:48:34.531Z,46.68
2022-08-26T21:50:38.243Z,47.37
2022-08-26T21:52:40.216Z,47.22
2022-08-26T21:54:42.003Z,47.53
2022-08-26T21:56:51.102Z,47.67
2022-08-26T21:58:55.133Z,48.64
2022-08-26T22:00:56.827Z,47.58
2022-08-26T22:03:00.788Z,47.10
2022-08-26T22:05:02.496Z,47.63
2022-08-26T22:07:04.362Z,48.12
2022-08-26T22:09:06.110Z,47.51
2022-08-26T22:11:09.431Z,46.84
2022-08-26T22:13:11.345Z,46.90
2022-08-26T22:15:19.833Z,47.78
2022-08-26T22:17:22.557Z,47.29
2022-08-26T22:19:25.099Z,46.85
2022-08-26T22:21:28.463Z,47.41
2022-08-26T22:23:30.398Z,47.96
2022-08-26T22:25:32.191Z,47.43
2022-08-26T22:27:33.826Z,47.47
2022-08-26T22:29:42.262Z,47.83
2022-08-26T22:31:43.962Z,47.19
2022-08-26T22:33:45.793Z,47.33
2022-08-26T22:35:51.123Z,48.24
2022-08-26T22:37:52.770Z,48.60
2022-08-26T22:39:58.877Z,49.15
2022-08-26T22:42:00.963Z,49.96
2022-08-26T22:44:03.482Z,49.24
2022-08-26T22:46:08.528Z,48.99
2022-08-26T22:48:12.633Z,48.39
2022-08-26T22:50:14.278Z,48.10
2022-08-26T22:52:15.961Z,47.68
2022-08-26T22:54:17.633Z,47.07
2022-08-26T22:56:21.189Z,47.30
2022-08-26T22:58:23.040Z,48.46
2022-08-26T23:00:32.995Z,49.71
2022-08-26T23:02:34.797Z,49.68
2022-08-26T23:04:36.673Z,48.93
2022-08-26T23:06:40.917Z,48.66
2022-08-26T23:08:45.307Z,49.89
2022-08-26T23:10:48.100Z,49.19
2022-08-26T23:12:49.861Z,49.59
2022-08-26T23:14:51.534Z,49.48
2022-08-26T23:16:53.573Z,49.03
2022-08-26T23:18:55.261Z,49.86
2022-08-26T23:20:56.926Z,49.72
2022-08-26T23:22:59.014Z,50.10
2022-08-26T23:25:00.814Z,50.58
2022-08-26T23:27:02.842Z,51.08
2022-08-26T23:29:07.035Z,50.78
2022-08-26T23:31:08.831Z,50.91
2022-08-26T23:33:10.440Z,50.90
2022-08-26T23:35:14.584Z,50.84
2022-08-26T23:37:16.491Z,51.06
2022-08-26T23:39:19.039Z,51.96
2022-08-26T23:41:24.216Z,51.52
2022-08-26T23:43:25.870Z,51.35
2022-08-26T23:45:27.665Z,50.64
2022-08-26T23:47:29.326Z,50.65
2022-08-26T23:49:31.901Z,51.46
2022-08-26T23:51:52.172Z,50.35
2022-08-26T23:53:53.825Z,51.45
2022-08-26T23:55:55.861Z,51.91
2022-08-26T23:57:57.646Z,52.27
2022-08-26T23:59:59.554Z,51.13
